マカッサル の空港の天気 - METARとTAF

ハサヌディン国際空港 ( WAAA / UPG ) - インドネシア 南スラウェシ州マカッサル
飛行場実況気象(Metar)
観測時間07/07 20:30 WITA (07/07 12:30 UTC)
風向・風速不定 1m/s
視程8000m
天気現象
少しの雲 雲底高度 610m
気温25℃
湿度100%
気圧1009hPa
METARWAAA 071230Z VRB02KT 8000 FEW020 25/25 Q1009 NOSIG
過去の天気等 Google飛行場航空写真 Wunderground天気予報

過去48時間のMETAR

飛行場予報(TAF)
発表時間: 7/07 19:00 WITA (7/07 11:00 UTC)
予報対象時間: 7日20時 WITA ~ 9日2時 WITA
風向・風速南南東 3m/s
視程8000m
全天の4割程度の雲 雲底高度 550m
8日6時 WITA ~ 8日8時 WITA に徐々に
視程10km以上
8日11時 WITA ~ 8日13時 WITA に徐々に
風向・風速西北西 5m/s
TAF WAAA 071100Z 0712/0818 15005KT 8000 SCT018
BECMG 0722/0800 9999
BECMG 0803/0805 30010KT